createdAt,value
2019-02-27T00:01:17.031Z,0.67
2019-02-27T00:06:25.205Z,1.33
2019-02-27T00:11:34.496Z,0.69
2019-02-27T00:16:44.615Z,0.68
2019-02-27T00:21:52.594Z,0.93
2019-02-27T00:27:01.952Z,0.99
2019-02-27T00:32:11.108Z,1.06
2019-02-27T00:37:20.343Z,0.72
2019-02-27T00:42:33.591Z,0.96
2019-02-27T00:47:38.290Z,0.96
2019-02-27T00:52:50.828Z,1.00
2019-02-27T00:57:56.453Z,1.03
2019-02-27T01:03:05.783Z,1.21
2019-02-27T01:08:14.963Z,0.93
2019-02-27T01:13:24.183Z,0.66
2019-02-27T01:18:33.410Z,0.93
2019-02-27T01:23:44.626Z,0.67
2019-02-27T01:28:51.350Z,0.93
2019-02-27T01:34:00.551Z,0.81
2019-02-27T01:39:11.354Z,0.85
2019-02-27T01:44:18.447Z,0.77
2019-02-27T01:49:27.664Z,0.86
2019-02-27T01:54:36.977Z,0.82
2019-02-27T01:59:50.265Z,0.69
2019-02-27T02:04:54.942Z,0.92
2019-02-27T02:10:04.107Z,1.07
2019-02-27T02:15:13.311Z,1.02
2019-02-27T02:20:27.019Z,0.65
2019-02-27T02:25:31.447Z,0.94
2019-02-27T02:30:40.635Z,0.71
2019-02-27T02:35:50.747Z,0.62
2019-02-27T02:40:58.791Z,0.63
2019-02-27T02:46:08.885Z,0.76
2019-02-27T02:51:16.847Z,0.69
2019-02-27T02:56:26.099Z,0.82
2019-02-27T03:01:35.290Z,0.74
2019-02-27T03:06:44.455Z,0.82
2019-02-27T03:11:54.572Z,0.75
2019-02-27T03:17:02.634Z,0.99
2019-02-27T03:22:11.989Z,0.98
2019-02-27T03:27:21.340Z,0.40
2019-02-27T03:32:41.259Z,0.81
2019-02-27T03:37:39.318Z,1.06
2019-02-27T03:42:48.535Z,0.84
2019-02-27T03:47:57.735Z,0.60
2019-02-27T03:53:10.843Z,0.93
2019-02-27T03:58:15.926Z,0.88
2019-02-27T04:03:25.296Z,0.64
2019-02-27T04:08:34.523Z,1.34
2019-02-27T04:13:43.904Z,0.59
2019-02-27T04:18:53.193Z,0.92
2019-02-27T04:24:02.451Z,0.74
2019-02-27T04:29:11.603Z,0.84
2019-02-27T04:34:20.991Z,0.73
2019-02-27T04:39:30.149Z,0.49
2019-02-27T04:44:39.613Z,0.71
2019-02-27T04:49:48.637Z,0.84
2019-02-27T04:54:58.148Z,0.87
2019-02-27T05:00:07.334Z,0.59
2019-02-27T05:05:16.523Z,0.85
2019-02-27T05:10:25.708Z,0.96
2019-02-27T05:15:38.921Z,0.48
2019-02-27T05:20:45.752Z,0.57
2019-02-27T05:25:52.670Z,0.99
2019-02-27T05:31:01.950Z,0.65
2019-02-27T05:36:11.259Z,0.78
2019-02-27T05:41:20.414Z,0.73
2019-02-27T05:46:29.615Z,0.68
2019-02-27T05:51:38.855Z,0.69
2019-02-27T05:56:49.746Z,0.66
2019-02-27T06:01:56.951Z,0.96
2019-02-27T06:07:06.194Z,0.93
2019-02-27T06:12:15.599Z,0.74
2019-02-27T06:17:24.864Z,0.77
2019-02-27T06:22:34.126Z,0.65
2019-02-27T06:27:43.375Z,0.58
2019-02-27T06:32:52.623Z,0.80
2019-02-27T06:38:01.889Z,0.83
2019-02-27T06:43:11.110Z,0.74
2019-02-27T06:48:20.382Z,0.54
2019-02-27T06:53:29.670Z,0.89
2019-02-27T06:58:38.864Z,0.54
2019-02-27T07:03:48.158Z,0.85
2019-02-27T07:08:57.390Z,0.85
2019-02-27T07:14:06.670Z,0.51
2019-02-27T07:19:16.415Z,0.70
2019-02-27T07:24:24.592Z,0.48
2019-02-27T07:29:33.813Z,0.62
2019-02-27T07:34:43.024Z,0.70
2019-02-27T07:39:52.307Z,0.77
2019-02-27T07:45:01.551Z,0.65
2019-02-27T07:50:10.997Z,0.89
2019-02-27T07:55:22.939Z,1.06
2019-02-27T08:00:29.106Z,0.66
2019-02-27T08:05:38.369Z,0.59
2019-02-27T08:10:47.849Z,0.55
2019-02-27T08:15:57.987Z,0.89
2019-02-27T08:21:05.968Z,0.66
2019-02-27T08:26:15.186Z,0.75
2019-02-27T08:31:27.962Z,1.75
2019-02-27T08:36:33.500Z,0.95
2019-02-27T08:41:42.846Z,1.00
2019-02-27T08:46:52.051Z,0.69
2019-02-27T08:52:01.376Z,0.82
2019-02-27T08:57:10.576Z,0.53
2019-02-27T09:02:19.936Z,0.67
2019-02-27T09:07:29.136Z,0.67
2019-02-27T09:12:40.224Z,1.09
2019-02-27T09:17:47.259Z,1.33
2019-02-27T09:22:56.699Z,1.12
2019-02-27T09:28:09.033Z,1.10
2019-02-27T09:33:17.050Z,1.20
2019-02-27T09:38:24.327Z,1.21
2019-02-27T09:43:32.460Z,0.70
2019-02-27T09:48:41.819Z,0.93
2019-02-27T09:53:51.186Z,1.47
2019-02-27T09:59:00.488Z,0.67
2019-02-27T10:04:09.810Z,0.99
2019-02-27T10:09:19.031Z,0.92
2019-02-27T10:14:28.452Z,0.94
2019-02-27T10:19:37.710Z,1.23
2019-02-27T10:24:47.048Z,1.81
2019-02-27T10:29:56.406Z,1.53
2019-02-27T10:35:05.863Z,1.25
2019-02-27T10:40:15.238Z,1.75
2019-02-27T10:45:24.600Z,1.58
2019-02-27T10:50:35.563Z,1.06
2019-02-27T10:55:43.178Z,1.32
2019-02-27T11:00:52.514Z,1.23
2019-02-27T11:06:01.981Z,1.46
2019-02-27T11:11:13.149Z,0.64
2019-02-27T11:16:21.274Z,0.64
2019-02-27T11:21:29.238Z,1.01
2019-02-27T11:26:38.732Z,0.79
2019-02-27T11:31:47.949Z,0.80
2019-02-27T11:36:57.140Z,0.81
2019-02-27T11:42:06.745Z,0.73
2019-02-27T11:47:15.979Z,0.89
2019-02-27T11:52:27.671Z,0.95
2019-02-27T11:57:33.944Z,1.35
2019-02-27T12:02:43.182Z,1.41
2019-02-27T12:07:52.572Z,0.97
2019-02-27T12:13:01.881Z,1.40
2019-02-27T12:18:11.370Z,1.04
2019-02-27T12:23:20.756Z,0.96
2019-02-27T12:28:30.007Z,1.12
2019-02-27T12:33:39.228Z,1.10
2019-02-27T12:38:48.475Z,1.00
2019-02-27T12:43:57.739Z,0.99
2019-02-27T12:49:07.038Z,0.73
2019-02-27T12:54:16.317Z,0.94
2019-02-27T12:59:25.665Z,0.81
2019-02-27T13:04:34.921Z,1.01
2019-02-27T13:09:44.254Z,1.17
2019-02-27T13:14:53.539Z,0.68
2019-02-27T13:20:03.153Z,0.81
2019-02-27T13:25:11.479Z,0.70
2019-02-27T13:30:20.711Z,0.67
2019-02-27T13:35:30.046Z,0.46
2019-02-27T13:40:39.576Z,0.34
2019-02-27T13:45:48.838Z,0.61
2019-02-27T13:50:59.255Z,0.26
2019-02-27T13:56:06.939Z,0.59
2019-02-27T14:01:16.298Z,0.58
2019-02-27T14:06:25.482Z,0.48
2019-02-27T14:11:34.770Z,0.34
2019-02-27T14:16:43.911Z,0.29
2019-02-27T14:21:53.193Z,0.46
2019-02-27T14:27:02.474Z,0.35
2019-02-27T14:32:14.430Z,0.40
2019-02-27T14:37:20.967Z,0.22
2019-02-27T14:42:30.267Z,0.18
2019-02-27T14:47:39.480Z,0.23
2019-02-27T14:52:50.015Z,0.17
2019-02-27T14:57:57.865Z,0.14
2019-02-27T15:03:07.132Z,0.23
2019-02-27T15:08:16.391Z,0.23
2019-02-27T15:13:28.085Z,0.10
2019-02-27T15:18:34.577Z,0.24
2019-02-27T15:23:43.818Z,0.16
2019-02-27T15:28:53.270Z,0.17
2019-02-27T15:34:02.529Z,0.21
2019-02-27T15:39:11.877Z,0.24
2019-02-27T15:44:21.023Z,0.33
2019-02-27T15:49:30.266Z,0.26
2019-02-27T15:54:39.493Z,0.21
2019-02-27T15:59:48.721Z,1.79
2019-02-27T16:04:58.034Z,1.30
2019-02-27T16:10:08.145Z,0.84
2019-02-27T16:15:18.036Z,0.79
2019-02-27T16:20:17.165Z,0.75
2019-02-27T16:25:26.415Z,0.59
2019-02-27T16:30:37.132Z,1.03
2019-02-27T16:35:46.325Z,0.79
2019-02-27T16:40:53.662Z,3.93
2019-02-27T16:46:02.115Z,3.56
2019-02-27T16:51:12.762Z,2.59
2019-02-27T16:56:12.896Z,1.77
2019-02-27T17:01:20.968Z,1.14
2019-02-27T17:06:30.166Z,1.39
2019-02-27T17:11:39.468Z,1.10
2019-02-27T17:16:49.144Z,0.69
2019-02-27T17:21:58.760Z,0.97
2019-02-27T17:27:12.488Z,0.74
2019-02-27T17:32:16.248Z,0.68
2019-02-27T17:37:25.061Z,0.72
2019-02-27T17:42:37.380Z,0.72
2019-02-27T17:47:35.558Z,0.50
2019-02-27T17:52:36.399Z,0.81
2019-02-27T17:57:46.389Z,0.43
2019-02-27T18:02:45.296Z,0.96
2019-02-27T18:07:55.394Z,0.71
2019-02-27T18:12:54.852Z,1.66
2019-02-27T18:18:07.584Z,0.91
2019-02-27T18:23:15.516Z,0.75
2019-02-27T18:28:15.844Z,1.14
2019-02-27T18:33:17.384Z,0.85
2019-02-27T18:38:27.634Z,0.67
2019-02-27T18:43:33.396Z,1.10
2019-02-27T18:48:43.804Z,1.21
2019-02-27T18:53:52.469Z,1.22
2019-02-27T18:59:02.495Z,1.48
2019-02-27T19:04:01.824Z,1.05
2019-02-27T19:09:11.349Z,1.19
2019-02-27T19:14:21.289Z,1.20
2019-02-27T19:19:31.147Z,0.85
2019-02-27T19:24:41.872Z,0.94
2019-02-27T19:29:41.879Z,0.78
2019-02-27T19:34:44.695Z,1.40
2019-02-27T19:39:53.324Z,1.08
2019-02-27T19:45:04.241Z,0.89
2019-02-27T19:50:01.976Z,0.83
2019-02-27T19:55:10.927Z,0.89
2019-02-27T20:00:23.867Z,0.86
2019-02-27T20:05:24.395Z,0.82
2019-02-27T20:10:28.852Z,0.88
2019-02-27T20:15:32.430Z,0.44
2019-02-27T20:20:41.650Z,0.55
2019-02-27T20:25:50.935Z,1.23
2019-02-27T20:31:00.230Z,0.51
2019-02-27T20:36:09.655Z,0.91
2019-02-27T20:41:18.928Z,0.55
2019-02-27T20:46:28.147Z,0.51
2019-02-27T20:51:39.938Z,0.53
2019-02-27T20:56:55.145Z,0.86
2019-02-27T21:01:54.946Z,0.79
2019-02-27T21:07:04.362Z,1.02
2019-02-27T21:12:13.731Z,0.97
2019-02-27T21:17:23.046Z,1.11
2019-02-27T21:22:32.407Z,0.64
2019-02-27T21:27:41.764Z,0.96
2019-02-27T21:32:50.992Z,0.65
2019-02-27T21:38:00.258Z,0.88
2019-02-27T21:43:09.482Z,0.77
2019-02-27T21:48:18.782Z,1.37
2019-02-27T21:53:29.606Z,0.67
2019-02-27T21:58:37.183Z,0.74
2019-02-27T22:03:46.395Z,0.84
2019-02-27T22:08:55.751Z,0.49
2019-02-27T22:14:04.953Z,0.66
2019-02-27T22:19:14.170Z,0.81
2019-02-27T22:24:23.331Z,0.44
2019-02-27T22:29:32.551Z,0.62
2019-02-27T22:34:41.785Z,0.55
2019-02-27T22:39:53.039Z,0.70
2019-02-27T22:45:00.632Z,0.71
2019-02-27T22:50:08.464Z,0.55
2019-02-27T22:55:17.626Z,0.71
2019-02-27T23:00:26.968Z,0.55
2019-02-27T23:05:38.157Z,0.52
2019-02-27T23:10:44.918Z,1.54
2019-02-27T23:15:57.966Z,0.79
2019-02-27T23:21:02.889Z,0.82
2019-02-27T23:26:12.063Z,1.40
2019-02-27T23:31:23.408Z,1.23
2019-02-27T23:36:30.047Z,1.09
2019-02-27T23:41:39.311Z,1.60
2019-02-27T23:46:51.259Z,1.14
2019-02-27T23:51:57.291Z,1.11
2019-02-27T23:57:06.438Z,0.80
